sensor_id;sensor_type;location;lat;lon;timestamp;temperature;humidity
40808;DHT22;26523;52.504;13.498;2023-03-05T00:01:33;3.90;99.90
40808;DHT22;26523;52.504;13.498;2023-03-05T00:04:00;4.00;99.90
40808;DHT22;26523;52.504;13.498;2023-03-05T00:06:27;4.00;99.90
40808;DHT22;26523;52.504;13.498;2023-03-05T00:08:53;3.90;99.90
40808;DHT22;26523;52.504;13.498;2023-03-05T00:11:21;3.90;99.90
40808;DHT22;26523;52.504;13.498;2023-03-05T00:13:50;3.90;99.90
40808;DHT22;26523;52.504;13.498;2023-03-05T00:16:16;3.90;99.90
40808;DHT22;26523;52.504;13.498;2023-03-05T00:18:42;3.80;99.90
40808;DHT22;26523;52.504;13.498;2023-03-05T00:21:38;3.80;99.90
40808;DHT22;26523;52.504;13.498;2023-03-05T00:24:12;3.70;99.90
40808;DHT22;26523;52.504;13.498;2023-03-05T00:26:38;3.60;99.90
40808;DHT22;26523;52.504;13.498;2023-03-05T00:29:05;3.60;99.90
40808;DHT22;26523;52.504;13.498;2023-03-05T00:31:33;3.60;99.90
40808;DHT22;26523;52.504;13.498;2023-03-05T00:34:01;3.50;99.90
40808;DHT22;26523;52.504;13.498;2023-03-05T00:36:28;3.40;99.90
40808;DHT22;26523;52.504;13.498;2023-03-05T00:38:53;3.40;99.90
40808;DHT22;26523;52.504;13.498;2023-03-05T00:41:19;3.30;99.90
40808;DHT22;26523;52.504;13.498;2023-03-05T00:43:46;3.30;99.90
40808;DHT22;26523;52.504;13.498;2023-03-05T00:46:11;3.30;99.90
40808;DHT22;26523;52.504;13.498;2023-03-05T00:48:37;3.30;99.90
40808;DHT22;26523;52.504;13.498;2023-03-05T00:51:03;3.20;99.90
40808;DHT22;26523;52.504;13.498;2023-03-05T00:53:29;3.20;99.90
40808;DHT22;26523;52.504;13.498;2023-03-05T00:55:54;3.10;99.90
40808;DHT22;26523;52.504;13.498;2023-03-05T00:58:20;3.00;99.90
40808;DHT22;26523;52.504;13.498;2023-03-05T01:00:46;3.00;99.90
40808;DHT22;26523;52.504;13.498;2023-03-05T01:03:15;3.00;99.90
40808;DHT22;26523;52.504;13.498;2023-03-05T01:05:42;3.10;99.90
40808;DHT22;26523;52.504;13.498;2023-03-05T01:08:08;3.00;99.90
40808;DHT22;26523;52.504;13.498;2023-03-05T01:10:34;3.00;99.90
40808;DHT22;26523;52.504;13.498;2023-03-05T01:12:59;3.00;99.90
40808;DHT22;26523;52.504;13.498;2023-03-05T01:15:25;3.10;99.90
40808;DHT22;26523;52.504;13.498;2023-03-05T01:17:51;3.00;99.90
40808;DHT22;26523;52.504;13.498;2023-03-05T01:20:19;3.10;99.90
40808;DHT22;26523;52.504;13.498;2023-03-05T01:22:44;3.10;99.90
40808;DHT22;26523;52.504;13.498;2023-03-05T01:25:12;3.10;99.90
40808;DHT22;26523;52.504;13.498;2023-03-05T01:27:38;3.00;99.90
40808;DHT22;26523;52.504;13.498;2023-03-05T01:30:06;3.10;99.90
40808;DHT22;26523;52.504;13.498;2023-03-05T01:32:33;3.00;99.90
40808;DHT22;26523;52.504;13.498;2023-03-05T01:35:00;3.00;99.90
40808;DHT22;26523;52.504;13.498;2023-03-05T01:37:26;3.00;99.90
40808;DHT22;26523;52.504;13.498;2023-03-05T01:39:52;2.90;99.90
40808;DHT22;26523;52.504;13.498;2023-03-05T01:42:17;2.90;99.90
40808;DHT22;26523;52.504;13.498;2023-03-05T01:45:17;3.00;99.90
40808;DHT22;26523;52.504;13.498;2023-03-05T01:47:44;3.00;99.90
40808;DHT22;26523;52.504;13.498;2023-03-05T01:50:16;2.90;99.90
40808;DHT22;26523;52.504;13.498;2023-03-05T01:52:48;2.90;99.90
40808;DHT22;26523;52.504;13.498;2023-03-05T01:55:21;2.90;99.90
40808;DHT22;26523;52.504;13.498;2023-03-05T01:58:09;2.80;99.90
40808;DHT22;26523;52.504;13.498;2023-03-05T02:00:38;2.70;99.90
40808;DHT22;26523;52.504;13.498;2023-03-05T02:03:08;2.80;99.90
40808;DHT22;26523;52.504;13.498;2023-03-05T02:05:37;2.70;99.90
40808;DHT22;26523;52.504;13.498;2023-03-05T02:08:05;2.70;99.90
40808;DHT22;26523;52.504;13.498;2023-03-05T02:10:40;2.70;99.90
40808;DHT22;26523;52.504;13.498;2023-03-05T02:13:09;2.60;99.90
40808;DHT22;26523;52.504;13.498;2023-03-05T02:15:37;2.70;99.90
40808;DHT22;26523;52.504;13.498;2023-03-05T02:18:04;2.60;99.90
40808;DHT22;26523;52.504;13.498;2023-03-05T02:20:51;2.60;99.90
40808;DHT22;26523;52.504;13.498;2023-03-05T02:23:19;2.50;99.90
40808;DHT22;26523;52.504;13.498;2023-03-05T02:25:45;2.50;99.90
40808;DHT22;26523;52.504;13.498;2023-03-05T02:28:12;2.50;99.90
40808;DHT22;26523;52.504;13.498;2023-03-05T02:30:40;2.40;99.90
40808;DHT22;26523;52.504;13.498;2023-03-05T02:33:06;2.40;99.90
40808;DHT22;26523;52.504;13.498;2023-03-05T02:35:32;2.40;99.90
40808;DHT22;26523;52.504;13.498;2023-03-05T02:37:57;2.40;99.90
40808;DHT22;26523;52.504;13.498;2023-03-05T02:40:23;2.50;99.90
40808;DHT22;26523;52.504;13.498;2023-03-05T02:42:49;2.50;99.90
40808;DHT22;26523;52.504;13.498;2023-03-05T02:45:15;2.40;99.90
40808;DHT22;26523;52.504;13.498;2023-03-05T02:47:41;2.40;99.90
40808;DHT22;26523;52.504;13.498;2023-03-05T02:50:08;2.50;99.90
40808;DHT22;26523;52.504;13.498;2023-03-05T02:52:35;2.40;99.90
40808;DHT22;26523;52.504;13.498;2023-03-05T02:55:00;2.50;99.90
40808;DHT22;26523;52.504;13.498;2023-03-05T02:57:26;2.40;99.90
40808;DHT22;26523;52.504;13.498;2023-03-05T02:59:52;2.50;99.90
40808;DHT22;26523;52.504;13.498;2023-03-05T03:02:17;2.40;99.90
40808;DHT22;26523;52.504;13.498;2023-03-05T03:04:44;2.40;99.90
40808;DHT22;26523;52.504;13.498;2023-03-05T03:07:13;2.40;99.90
40808;DHT22;26523;52.504;13.498;2023-03-05T03:09:39;2.40;99.90
40808;DHT22;26523;52.504;13.498;2023-03-05T03:12:05;2.50;99.90
40808;DHT22;26523;52.504;13.498;2023-03-05T03:14:36;2.50;99.90
40808;DHT22;26523;52.504;13.498;2023-03-05T03:17:11;2.40;99.90
40808;DHT22;26523;52.504;13.498;2023-03-05T03:19:38;2.40;99.90
40808;DHT22;26523;52.504;13.498;2023-03-05T03:22:04;2.30;99.90
40808;DHT22;26523;52.504;13.498;2023-03-05T03:24:31;2.30;99.90
40808;DHT22;26523;52.504;13.498;2023-03-05T03:26:57;2.30;99.90
40808;DHT22;26523;52.504;13.498;2023-03-05T03:29:23;2.30;99.90
40808;DHT22;26523;52.504;13.498;2023-03-05T03:31:48;2.40;99.90
40808;DHT22;26523;52.504;13.498;2023-03-05T03:34:15;2.40;99.90
40808;DHT22;26523;52.504;13.498;2023-03-05T03:36:45;2.40;99.90
40808;DHT22;26523;52.504;13.498;2023-03-05T03:39:12;2.40;99.90
40808;DHT22;26523;52.504;13.498;2023-03-05T03:41:43;2.40;99.90
40808;DHT22;26523;52.504;13.498;2023-03-05T03:44:10;2.40;99.90
40808;DHT22;26523;52.504;13.498;2023-03-05T03:46:37;2.40;99.90
40808;DHT22;26523;52.504;13.498;2023-03-05T03:49:03;2.40;99.90
40808;DHT22;26523;52.504;13.498;2023-03-05T03:51:29;2.40;99.90
40808;DHT22;26523;52.504;13.498;2023-03-05T03:53:55;2.40;99.90
40808;DHT22;26523;52.504;13.498;2023-03-05T03:56:21;2.40;99.90
40808;DHT22;26523;52.504;13.498;2023-03-05T03:58:49;2.30;99.90
40808;DHT22;26523;52.504;13.498;2023-03-05T04:01:17;2.30;99.90
40808;DHT22;26523;52.504;13.498;2023-03-05T04:03:42;2.40;99.90
40808;DHT22;26523;52.504;13.498;2023-03-05T04:06:08;2.40;99.90
40808;DHT22;26523;52.504;13.498;2023-03-05T04:08:34;2.40;99.90
40808;DHT22;26523;52.504;13.498;2023-03-05T04:11:00;2.50;99.90
40808;DHT22;26523;52.504;13.498;2023-03-05T04:13:26;2.50;99.90
40808;DHT22;26523;52.504;13.498;2023-03-05T04:15:52;2.30;99.90
40808;DHT22;26523;52.504;13.498;2023-03-05T04:18:18;2.30;99.90
40808;DHT22;26523;52.504;13.498;2023-03-05T04:20:44;2.30;99.90
40808;DHT22;26523;52.504;13.498;2023-03-05T04:23:09;2.20;99.90
40808;DHT22;26523;52.504;13.498;2023-03-05T04:25:35;2.20;99.90
40808;DHT22;26523;52.504;13.498;2023-03-05T04:28:01;2.30;99.90
40808;DHT22;26523;52.504;13.498;2023-03-05T04:30:26;2.30;99.90
40808;DHT22;26523;52.504;13.498;2023-03-05T04:32:52;2.30;99.90
40808;DHT22;26523;52.504;13.498;2023-03-05T04:35:18;2.20;99.90
40808;DHT22;26523;52.504;13.498;2023-03-05T04:37:43;2.10;99.90
40808;DHT22;26523;52.504;13.498;2023-03-05T04:40:10;2.10;99.90
40808;DHT22;26523;52.504;13.498;2023-03-05T04:42:36;2.00;99.90
40808;DHT22;26523;52.504;13.498;2023-03-05T04:45:02;1.90;99.90
40808;DHT22;26523;52.504;13.498;2023-03-05T04:47:28;1.90;99.90
40808;DHT22;26523;52.504;13.498;2023-03-05T04:49:53;1.90;99.90
40808;DHT22;26523;52.504;13.498;2023-03-05T04:52:19;1.80;99.90
40808;DHT22;26523;52.504;13.498;2023-03-05T04:54:45;1.90;99.90
40808;DHT22;26523;52.504;13.498;2023-03-05T04:57:10;1.80;99.90
40808;DHT22;26523;52.504;13.498;2023-03-05T04:59:37;1.80;99.90
40808;DHT22;26523;52.504;13.498;2023-03-05T05:02:03;1.80;99.90
40808;DHT22;26523;52.504;13.498;2023-03-05T05:04:28;1.80;99.90
40808;DHT22;26523;52.504;13.498;2023-03-05T05:06:55;1.70;99.90
40808;DHT22;26523;52.504;13.498;2023-03-05T05:09:21;1.80;99.90
40808;DHT22;26523;52.504;13.498;2023-03-05T05:11:47;1.70;99.90
40808;DHT22;26523;52.504;13.498;2023-03-05T05:14:13;1.70;99.90
40808;DHT22;26523;52.504;13.498;2023-03-05T05:16:38;1.70;99.90
40808;DHT22;26523;52.504;13.498;2023-03-05T05:19:04;1.70;99.90
40808;DHT22;26523;52.504;13.498;2023-03-05T05:21:31;1.80;99.90
40808;DHT22;26523;52.504;13.498;2023-03-05T05:23:56;1.70;99.90
40808;DHT22;26523;52.504;13.498;2023-03-05T05:26:22;1.80;99.90
40808;DHT22;26523;52.504;13.498;2023-03-05T05:28:47;1.80;99.90
40808;DHT22;26523;52.504;13.498;2023-03-05T05:31:15;1.80;99.90
40808;DHT22;26523;52.504;13.498;2023-03-05T05:33:41;1.80;99.90
40808;DHT22;26523;52.504;13.498;2023-03-05T05:36:10;1.70;99.90
40808;DHT22;26523;52.504;13.498;2023-03-05T05:38:36;1.60;99.90
40808;DHT22;26523;52.504;13.498;2023-03-05T05:41:07;1.60;99.90
40808;DHT22;26523;52.504;13.498;2023-03-05T05:43:33;1.50;99.90
40808;DHT22;26523;52.504;13.498;2023-03-05T05:46:00;1.50;99.90
40808;DHT22;26523;52.504;13.498;2023-03-05T05:48:28;1.60;99.90
40808;DHT22;26523;52.504;13.498;2023-03-05T05:50:54;1.40;99.90
40808;DHT22;26523;52.504;13.498;2023-03-05T05:53:20;1.40;99.90
40808;DHT22;26523;52.504;13.498;2023-03-05T05:55:45;1.40;99.90
40808;DHT22;26523;52.504;13.498;2023-03-05T05:58:11;1.30;99.90
40808;DHT22;26523;52.504;13.498;2023-03-05T06:00:37;1.30;99.90
40808;DHT22;26523;52.504;13.498;2023-03-05T06:03:03;1.30;99.90
40808;DHT22;26523;52.504;13.498;2023-03-05T06:05:29;1.40;99.90
40808;DHT22;26523;52.504;13.498;2023-03-05T06:07:54;1.50;99.90
40808;DHT22;26523;52.504;13.498;2023-03-05T06:10:20;1.60;99.90
40808;DHT22;26523;52.504;13.498;2023-03-05T06:12:46;1.60;99.90
40808;DHT22;26523;52.504;13.498;2023-03-05T06:15:11;1.60;99.90
40808;DHT22;26523;52.504;13.498;2023-03-05T06:17:37;1.70;99.90
40808;DHT22;26523;52.504;13.498;2023-03-05T06:20:03;1.80;99.90
40808;DHT22;26523;52.504;13.498;2023-03-05T06:22:34;1.80;99.90
40808;DHT22;26523;52.504;13.498;2023-03-05T06:25:00;1.90;99.90
40808;DHT22;26523;52.504;13.498;2023-03-05T06:27:25;2.00;99.90
40808;DHT22;26523;52.504;13.498;2023-03-05T06:29:52;2.00;99.90
40808;DHT22;26523;52.504;13.498;2023-03-05T06:32:19;2.00;99.90
40808;DHT22;26523;52.504;13.498;2023-03-05T06:34:44;2.10;99.90
40808;DHT22;26523;52.504;13.498;2023-03-05T06:37:10;2.10;99.90
40808;DHT22;26523;52.504;13.498;2023-03-05T06:39:36;2.10;99.90
40808;DHT22;26523;52.504;13.498;2023-03-05T06:42:01;2.30;99.90
40808;DHT22;26523;52.504;13.498;2023-03-05T06:44:27;2.40;99.90
40808;DHT22;26523;52.504;13.498;2023-03-05T06:46:53;2.60;99.90
40808;DHT22;26523;52.504;13.498;2023-03-05T06:49:19;2.80;99.90
40808;DHT22;26523;52.504;13.498;2023-03-05T06:51:44;3.00;99.90
40808;DHT22;26523;52.504;13.498;2023-03-05T06:54:12;3.20;99.90
40808;DHT22;26523;52.504;13.498;2023-03-05T06:56:40;3.30;99.90
40808;DHT22;26523;52.504;13.498;2023-03-05T06:59:06;3.30;99.90
40808;DHT22;26523;52.504;13.498;2023-03-05T07:01:33;3.30;99.90
40808;DHT22;26523;52.504;13.498;2023-03-05T07:03:58;3.20;99.90
40808;DHT22;26523;52.504;13.498;2023-03-05T07:06:25;3.20;99.90
40808;DHT22;26523;52.504;13.498;2023-03-05T07:08:54;3.20;99.90
40808;DHT22;26523;52.504;13.498;2023-03-05T07:11:23;3.30;99.90
40808;DHT22;26523;52.504;13.498;2023-03-05T07:13:49;3.30;99.90
40808;DHT22;26523;52.504;13.498;2023-03-05T07:16:23;3.40;99.90
40808;DHT22;26523;52.504;13.498;2023-03-05T07:18:50;3.50;99.90
40808;DHT22;26523;52.504;13.498;2023-03-05T07:21:26;3.70;99.90
40808;DHT22;26523;52.504;13.498;2023-03-05T07:23:56;3.90;99.90
40808;DHT22;26523;52.504;13.498;2023-03-05T07:26:23;3.80;99.90
40808;DHT22;26523;52.504;13.498;2023-03-05T07:28:48;3.80;99.90
40808;DHT22;26523;52.504;13.498;2023-03-05T07:31:17;3.70;99.90
40808;DHT22;26523;52.504;13.498;2023-03-05T07:33:44;3.70;99.90
40808;DHT22;26523;52.504;13.498;2023-03-05T07:36:11;3.70;99.90
40808;DHT22;26523;52.504;13.498;2023-03-05T07:38:37;3.60;99.90
40808;DHT22;26523;52.504;13.498;2023-03-05T07:41:05;3.60;99.90
40808;DHT22;26523;52.504;13.498;2023-03-05T07:43:31;3.70;99.90
40808;DHT22;26523;52.504;13.498;2023-03-05T07:45:57;3.70;99.90
40808;DHT22;26523;52.504;13.498;2023-03-05T07:48:23;3.70;99.90
40808;DHT22;26523;52.504;13.498;2023-03-05T07:50:49;3.80;99.90
40808;DHT22;26523;52.504;13.498;2023-03-05T07:53:15;3.90;99.90
40808;DHT22;26523;52.504;13.498;2023-03-05T07:55:45;4.00;99.90
40808;DHT22;26523;52.504;13.498;2023-03-05T07:58:11;4.20;99.90
40808;DHT22;26523;52.504;13.498;2023-03-05T08:00:37;4.30;99.90
40808;DHT22;26523;52.504;13.498;2023-03-05T08:03:03;4.50;99.90
40808;DHT22;26523;52.504;13.498;2023-03-05T08:05:29;4.80;99.90
40808;DHT22;26523;52.504;13.498;2023-03-05T08:07:54;5.00;99.90
40808;DHT22;26523;52.504;13.498;2023-03-05T08:10:20;5.10;99.90
40808;DHT22;26523;52.504;13.498;2023-03-05T08:12:46;5.00;99.90
40808;DHT22;26523;52.504;13.498;2023-03-05T08:15:11;4.90;99.90
40808;DHT22;26523;52.504;13.498;2023-03-05T08:17:37;4.80;99.90
40808;DHT22;26523;52.504;13.498;2023-03-05T08:20:03;4.80;99.90
40808;DHT22;26523;52.504;13.498;2023-03-05T08:22:32;4.80;99.90
40808;DHT22;26523;52.504;13.498;2023-03-05T08:24:59;4.70;99.90
40808;DHT22;26523;52.504;13.498;2023-03-05T08:27:25;4.90;99.90
40808;DHT22;26523;52.504;13.498;2023-03-05T08:29:50;5.10;99.90
40808;DHT22;26523;52.504;13.498;2023-03-05T08:32:16;5.20;99.90
40808;DHT22;26523;52.504;13.498;2023-03-05T08:34:42;5.70;99.90
40808;DHT22;26523;52.504;13.498;2023-03-05T08:37:07;5.80;99.90
40808;DHT22;26523;52.504;13.498;2023-03-05T08:39:35;6.20;99.90
40808;DHT22;26523;52.504;13.498;2023-03-05T08:42:01;7.20;99.90
40808;DHT22;26523;52.504;13.498;2023-03-05T08:44:27;7.70;99.90
40808;DHT22;26523;52.504;13.498;2023-03-05T08:46:52;7.60;99.90
40808;DHT22;26523;52.504;13.498;2023-03-05T08:49:18;7.30;99.90
40808;DHT22;26523;52.504;13.498;2023-03-05T08:51:43;6.70;99.90
40808;DHT22;26523;52.504;13.498;2023-03-05T08:54:09;6.40;99.90
40808;DHT22;26523;52.504;13.498;2023-03-05T08:56:35;6.20;99.90
40808;DHT22;26523;52.504;13.498;2023-03-05T08:59:02;6.10;99.90
40808;DHT22;26523;52.504;13.498;2023-03-05T09:01:29;5.90;99.90
40808;DHT22;26523;52.504;13.498;2023-03-05T09:03:57;6.00;99.90
40808;DHT22;26523;52.504;13.498;2023-03-05T09:06:22;6.20;99.90
40808;DHT22;26523;52.504;13.498;2023-03-05T09:08:48;6.30;99.90
40808;DHT22;26523;52.504;13.498;2023-03-05T09:11:14;6.40;99.90
40808;DHT22;26523;52.504;13.498;2023-03-05T09:13:40;6.30;99.90
40808;DHT22;26523;52.504;13.498;2023-03-05T09:16:10;6.50;99.90
40808;DHT22;26523;52.504;13.498;2023-03-05T09:18:36;6.70;99.90
40808;DHT22;26523;52.504;13.498;2023-03-05T09:21:10;6.70;99.80
40808;DHT22;26523;52.504;13.498;2023-03-05T09:23:36;6.90;99.10
40808;DHT22;26523;52.504;13.498;2023-03-05T09:26:05;7.00;98.30
40808;DHT22;26523;52.504;13.498;2023-03-05T09:28:31;6.80;98.00
40808;DHT22;26523;52.504;13.498;2023-03-05T09:31:01;6.70;97.30
40808;DHT22;26523;52.504;13.498;2023-03-05T09:33:26;6.70;97.00
40808;DHT22;26523;52.504;13.498;2023-03-05T09:35:52;6.60;97.20
40808;DHT22;26523;52.504;13.498;2023-03-05T09:38:18;6.40;97.40
40808;DHT22;26523;52.504;13.498;2023-03-05T09:41:06;6.30;97.70
40808;DHT22;26523;52.504;13.498;2023-03-05T09:46:31;5.60;98.70
40808;DHT22;26523;52.504;13.498;2023-03-05T09:52:17;5.20;99.60
40808;DHT22;26523;52.504;13.498;2023-03-05T09:54:48;5.20;99.80
40808;DHT22;26523;52.504;13.498;2023-03-05T09:57:31;5.10;99.90
40808;DHT22;26523;52.504;13.498;2023-03-05T10:00:04;5.00;99.90
40808;DHT22;26523;52.504;13.498;2023-03-05T10:02:43;4.90;99.90
40808;DHT22;26523;52.504;13.498;2023-03-05T10:05:25;4.90;99.90
40808;DHT22;26523;52.504;13.498;2023-03-05T10:08:00;4.90;99.90
40808;DHT22;26523;52.504;13.498;2023-03-05T10:10:39;4.90;99.90
40808;DHT22;26523;52.504;13.498;2023-03-05T10:13:15;5.00;99.90
40808;DHT22;26523;52.504;13.498;2023-03-05T10:22:00;5.50;99.60
40808;DHT22;26523;52.504;13.498;2023-03-05T10:25:02;5.60;99.90
40808;DHT22;26523;52.504;13.498;2023-03-05T10:27:50;5.50;99.10
40808;DHT22;26523;52.504;13.498;2023-03-05T10:36:18;5.70;98.90
40808;DHT22;26523;52.504;13.498;2023-03-05T10:42:15;5.60;98.80
40808;DHT22;26523;52.504;13.498;2023-03-05T10:47:29;5.50;99.00
40808;DHT22;26523;52.504;13.498;2023-03-05T10:49:57;5.40;99.60
40808;DHT22;26523;52.504;13.498;2023-03-05T10:52:43;5.10;99.90
40808;DHT22;26523;52.504;13.498;2023-03-05T10:55:16;5.00;99.90
40808;DHT22;26523;52.504;13.498;2023-03-05T10:57:42;5.00;99.90
40808;DHT22;26523;52.504;13.498;2023-03-05T11:00:18;5.00;99.90
40808;DHT22;26523;52.504;13.498;2023-03-05T11:02:57;4.90;99.90
40808;DHT22;26523;52.504;13.498;2023-03-05T11:05:45;5.00;99.90
40808;DHT22;26523;52.504;13.498;2023-03-05T11:08:25;5.10;99.90
40808;DHT22;26523;52.504;13.498;2023-03-05T11:16:25;5.30;99.90
40808;DHT22;26523;52.504;13.498;2023-03-05T11:19:31;5.40;99.90
40808;DHT22;26523;52.504;13.498;2023-03-05T11:22:16;5.50;99.90
40808;DHT22;26523;52.504;13.498;2023-03-05T11:24:44;5.40;99.90
40808;DHT22;26523;52.504;13.498;2023-03-05T11:27:38;5.50;99.90
40808;DHT22;26523;52.504;13.498;2023-03-05T11:30:27;5.50;99.90
40808;DHT22;26523;52.504;13.498;2023-03-05T11:33:12;5.50;99.90
40808;DHT22;26523;52.504;13.498;2023-03-05T11:35:40;5.60;99.90
40808;DHT22;26523;52.504;13.498;2023-03-05T11:38:18;5.70;99.90
40808;DHT22;26523;52.504;13.498;2023-03-05T11:40:44;5.70;99.90
40808;DHT22;26523;52.504;13.498;2023-03-05T11:43:16;5.70;99.90
40808;DHT22;26523;52.504;13.498;2023-03-05T11:45:44;5.80;99.90
40808;DHT22;26523;52.504;13.498;2023-03-05T11:48:31;6.00;99.90
40808;DHT22;26523;52.504;13.498;2023-03-05T11:51:01;6.20;99.90
40808;DHT22;26523;52.504;13.498;2023-03-05T11:53:30;6.10;99.90
40808;DHT22;26523;52.504;13.498;2023-03-05T11:56:16;6.20;99.90
40808;DHT22;26523;52.504;13.498;2023-03-05T11:58:49;6.30;99.90
40808;DHT22;26523;52.504;13.498;2023-03-05T12:01:19;6.30;99.90
40808;DHT22;26523;52.504;13.498;2023-03-05T12:03:45;6.20;99.90
40808;DHT22;26523;52.504;13.498;2023-03-05T12:06:37;6.10;99.90
40808;DHT22;26523;52.504;13.498;2023-03-05T12:09:37;6.00;99.90
40808;DHT22;26523;52.504;13.498;2023-03-05T12:12:43;5.80;99.90
40808;DHT22;26523;52.504;13.498;2023-03-05T12:20:55;5.60;99.90
40808;DHT22;26523;52.504;13.498;2023-03-05T12:23:22;5.70;99.90
40808;DHT22;26523;52.504;13.498;2023-03-05T12:25:53;5.80;99.90
40808;DHT22;26523;52.504;13.498;2023-03-05T12:33:35;6.30;99.90
40808;DHT22;26523;52.504;13.498;2023-03-05T12:38:53;6.40;99.90
40808;DHT22;26523;52.504;13.498;2023-03-05T12:46:45;6.30;99.90
40808;DHT22;26523;52.504;13.498;2023-03-05T12:51:55;6.40;99.30
40808;DHT22;26523;52.504;13.498;2023-03-05T12:54:32;6.40;99.20
40808;DHT22;26523;52.504;13.498;2023-03-05T12:57:02;6.40;98.60
40808;DHT22;26523;52.504;13.498;2023-03-05T12:59:41;6.30;98.10
40808;DHT22;26523;52.504;13.498;2023-03-05T13:04:45;6.00;98.00
40808;DHT22;26523;52.504;13.498;2023-03-05T13:07:16;6.00;98.00
40808;DHT22;26523;52.504;13.498;2023-03-05T13:09:54;6.00;97.90
40808;DHT22;26523;52.504;13.498;2023-03-05T13:12:21;6.00;98.40
40808;DHT22;26523;52.504;13.498;2023-03-05T13:17:30;6.00;99.10
40808;DHT22;26523;52.504;13.498;2023-03-05T13:19:58;6.00;98.80
40808;DHT22;26523;52.504;13.498;2023-03-05T13:22:24;6.00;98.70
40808;DHT22;26523;52.504;13.498;2023-03-05T13:27:35;5.90;97.30
40808;DHT22;26523;52.504;13.498;2023-03-05T13:30:01;5.80;97.40
40808;DHT22;26523;52.504;13.498;2023-03-05T13:32:31;5.70;97.20
40808;DHT22;26523;52.504;13.498;2023-03-05T13:34:59;5.70;97.80
40808;DHT22;26523;52.504;13.498;2023-03-05T13:37:26;5.60;97.90
40808;DHT22;26523;52.504;13.498;2023-03-05T13:40:02;5.70;98.50
40808;DHT22;26523;52.504;13.498;2023-03-05T13:42:33;5.80;98.20
40808;DHT22;26523;52.504;13.498;2023-03-05T13:47:59;5.90;97.00
40808;DHT22;26523;52.504;13.498;2023-03-05T13:50:29;6.00;97.30
40808;DHT22;26523;52.504;13.498;2023-03-05T13:53:12;6.00;97.70
40808;DHT22;26523;52.504;13.498;2023-03-05T13:55:38;5.90;98.20
40808;DHT22;26523;52.504;13.498;2023-03-05T13:58:04;5.90;98.40
40808;DHT22;26523;52.504;13.498;2023-03-05T14:00:37;5.70;99.10
40808;DHT22;26523;52.504;13.498;2023-03-05T14:03:29;5.60;99.50
40808;DHT22;26523;52.504;13.498;2023-03-05T14:05:54;5.50;99.80
40808;DHT22;26523;52.504;13.498;2023-03-05T14:08:25;5.40;99.90
40808;DHT22;26523;52.504;13.498;2023-03-05T14:10:52;5.40;99.90
40808;DHT22;26523;52.504;13.498;2023-03-05T14:13:21;5.20;99.90
40808;DHT22;26523;52.504;13.498;2023-03-05T14:16:14;5.10;99.90
40808;DHT22;26523;52.504;13.498;2023-03-05T14:19:01;4.90;99.90
40808;DHT22;26523;52.504;13.498;2023-03-05T14:21:48;4.90;99.90
40808;DHT22;26523;52.504;13.498;2023-03-05T14:24:24;4.90;99.90
40808;DHT22;26523;52.504;13.498;2023-03-05T14:26:54;4.90;99.90
40808;DHT22;26523;52.504;13.498;2023-03-05T14:29:23;4.90;99.90
40808;DHT22;26523;52.504;13.498;2023-03-05T14:34:39;4.90;99.90
40808;DHT22;26523;52.504;13.498;2023-03-05T14:37:17;4.80;99.90
40808;DHT22;26523;52.504;13.498;2023-03-05T14:39:54;4.90;99.60
40808;DHT22;26523;52.504;13.498;2023-03-05T14:44:45;4.70;99.90
40808;DHT22;26523;52.504;13.498;2023-03-05T14:47:11;4.70;99.90
40808;DHT22;26523;52.504;13.498;2023-03-05T14:49:37;4.70;99.90
40808;DHT22;26523;52.504;13.498;2023-03-05T14:52:02;4.80;99.90
40808;DHT22;26523;52.504;13.498;2023-03-05T14:54:33;4.70;99.90
40808;DHT22;26523;52.504;13.498;2023-03-05T14:57:00;4.80;99.90
40808;DHT22;26523;52.504;13.498;2023-03-05T14:59:26;4.80;99.90
40808;DHT22;26523;52.504;13.498;2023-03-05T15:01:51;4.80;99.90
40808;DHT22;26523;52.504;13.498;2023-03-05T15:04:17;4.70;99.90
40808;DHT22;26523;52.504;13.498;2023-03-05T15:06:44;4.70;99.90
40808;DHT22;26523;52.504;13.498;2023-03-05T15:09:15;4.70;99.90
40808;DHT22;26523;52.504;13.498;2023-03-05T15:11:45;4.70;99.90
40808;DHT22;26523;52.504;13.498;2023-03-05T15:14:11;4.70;99.90
40808;DHT22;26523;52.504;13.498;2023-03-05T15:16:39;4.60;99.90
40808;DHT22;26523;52.504;13.498;2023-03-05T15:19:07;4.60;99.90
40808;DHT22;26523;52.504;13.498;2023-03-05T15:21:33;4.70;99.90
40808;DHT22;26523;52.504;13.498;2023-03-05T15:23:59;4.70;99.90
40808;DHT22;26523;52.504;13.498;2023-03-05T15:26:25;4.70;99.90
40808;DHT22;26523;52.504;13.498;2023-03-05T15:28:50;4.60;99.90
40808;DHT22;26523;52.504;13.498;2023-03-05T15:31:16;4.50;99.90
40808;DHT22;26523;52.504;13.498;2023-03-05T15:33:42;4.50;99.90
40808;DHT22;26523;52.504;13.498;2023-03-05T15:36:08;4.40;99.90
40808;DHT22;26523;52.504;13.498;2023-03-05T15:38:34;4.40;99.90
40808;DHT22;26523;52.504;13.498;2023-03-05T15:41:00;4.20;99.90
40808;DHT22;26523;52.504;13.498;2023-03-05T15:43:25;4.20;99.90
40808;DHT22;26523;52.504;13.498;2023-03-05T15:45:51;4.20;99.90
40808;DHT22;26523;52.504;13.498;2023-03-05T15:48:17;4.10;99.90
40808;DHT22;26523;52.504;13.498;2023-03-05T15:50:43;4.10;99.90
40808;DHT22;26523;52.504;13.498;2023-03-05T15:53:11;4.10;99.90
40808;DHT22;26523;52.504;13.498;2023-03-05T15:55:41;4.00;99.90
40808;DHT22;26523;52.504;13.498;2023-03-05T15:58:08;3.90;99.90
40808;DHT22;26523;52.504;13.498;2023-03-05T16:00:34;3.90;99.90
40808;DHT22;26523;52.504;13.498;2023-03-05T16:03:01;3.90;99.90
40808;DHT22;26523;52.504;13.498;2023-03-05T16:05:27;3.80;99.90
40808;DHT22;26523;52.504;13.498;2023-03-05T16:07:53;3.90;99.90
40808;DHT22;26523;52.504;13.498;2023-03-05T16:10:23;3.80;99.90
40808;DHT22;26523;52.504;13.498;2023-03-05T16:12:53;3.80;99.90
40808;DHT22;26523;52.504;13.498;2023-03-05T16:15:20;3.70;99.90
40808;DHT22;26523;52.504;13.498;2023-03-05T16:17:50;3.60;99.90
40808;DHT22;26523;52.504;13.498;2023-03-05T16:20:18;3.60;99.90
40808;DHT22;26523;52.504;13.498;2023-03-05T16:22:44;3.60;99.90
40808;DHT22;26523;52.504;13.498;2023-03-05T16:25:10;3.50;99.90
40808;DHT22;26523;52.504;13.498;2023-03-05T16:27:36;3.40;99.90
40808;DHT22;26523;52.504;13.498;2023-03-05T16:30:05;3.40;99.90
40808;DHT22;26523;52.504;13.498;2023-03-05T16:32:32;3.40;99.90
40808;DHT22;26523;52.504;13.498;2023-03-05T16:34:57;3.30;99.90
40808;DHT22;26523;52.504;13.498;2023-03-05T16:37:23;3.40;99.90
40808;DHT22;26523;52.504;13.498;2023-03-05T16:39:49;3.30;99.90
40808;DHT22;26523;52.504;13.498;2023-03-05T16:42:15;3.30;99.90
40808;DHT22;26523;52.504;13.498;2023-03-05T16:44:42;3.20;99.90
40808;DHT22;26523;52.504;13.498;2023-03-05T16:47:09;3.20;99.90
40808;DHT22;26523;52.504;13.498;2023-03-05T16:49:37;3.20;99.90